createdAt,value
2022-07-31T00:00:00.277Z,9.712514
2022-07-31T00:01:00.276Z,9.712138
2022-07-31T00:02:00.265Z,9.712116
2022-07-31T00:03:00.317Z,9.712184
2022-07-31T00:04:00.247Z,9.712103
2022-07-31T00:05:00.237Z,9.712048
2022-07-31T00:06:00.247Z,9.712173
2022-07-31T00:07:00.526Z,9.712303
2022-07-31T00:08:00.751Z,9.712358
2022-07-31T00:09:00.213Z,9.712283
2022-07-31T00:10:00.223Z,9.712424
2022-07-31T00:11:00.195Z,9.712223
2022-07-31T00:12:00.189Z,9.712162
2022-07-31T00:13:00.212Z,9.712018
2022-07-31T00:14:00.171Z,9.711958
2022-07-31T00:15:00.170Z,9.711973
2022-07-31T00:16:01.157Z,9.711829
2022-07-31T00:17:00.513Z,9.711950
2022-07-31T00:18:00.141Z,9.711795
2022-07-31T00:19:00.137Z,9.711804
2022-07-31T00:20:00.175Z,9.711721
2022-07-31T00:21:00.117Z,9.711831
2022-07-31T00:22:00.118Z,9.711943
2022-07-31T00:23:00.098Z,9.711974
2022-07-31T00:24:00.093Z,9.711766
2022-07-31T00:25:00.092Z,9.711896
2022-07-31T00:26:00.081Z,9.711842
2022-07-31T00:27:00.306Z,9.711990
2022-07-31T00:28:00.062Z,9.711830
2022-07-31T00:29:00.074Z,9.711954
2022-07-31T00:30:00.072Z,9.711992
2022-07-31T00:31:00.067Z,9.711821
2022-07-31T00:38:24.891Z,9.711539
2022-07-31T00:39:03.540Z,9.711859
2022-07-31T00:40:01.540Z,9.711779
2022-07-31T00:41:01.536Z,9.711711
2022-07-31T00:42:01.515Z,9.711661
2022-07-31T00:43:01.499Z,9.711679
2022-07-31T00:44:01.492Z,9.711780
2022-07-31T00:45:01.486Z,9.711682
2022-07-31T00:46:01.481Z,9.711666
2022-07-31T00:47:01.800Z,9.711580
2022-07-31T00:48:01.462Z,9.711685
2022-07-31T00:49:01.478Z,9.711729
2022-07-31T00:50:01.461Z,9.711714
2022-07-31T00:51:02.359Z,9.711673
2022-07-31T00:52:01.435Z,9.711667
2022-07-31T00:53:01.423Z,9.711666
2022-07-31T00:54:01.600Z,9.711733
2022-07-31T00:55:01.421Z,9.711713
2022-07-31T00:56:01.399Z,9.711755
2022-07-31T00:57:01.708Z,9.711821
2022-07-31T00:58:01.418Z,9.711667
2022-07-31T00:59:01.378Z,9.711646
2022-07-31T01:00:01.375Z,9.711602
2022-07-31T01:01:01.415Z,9.711709
2022-07-31T01:02:01.359Z,9.711615
2022-07-31T01:03:01.341Z,9.711495
2022-07-31T01:04:01.337Z,9.711569
2022-07-31T01:05:01.332Z,9.711605
2022-07-31T01:06:01.326Z,9.711648
2022-07-31T01:07:01.771Z,9.711619
2022-07-31T01:08:01.305Z,9.711613
2022-07-31T01:09:01.305Z,9.711684
2022-07-31T01:10:01.299Z,9.711705
2022-07-31T01:11:01.292Z,9.711680
2022-07-31T01:12:01.292Z,9.711703
2022-07-31T01:13:01.280Z,9.711721
2022-07-31T01:14:01.273Z,9.711756
2022-07-31T01:15:02.950Z,9.711728
2022-07-31T01:16:01.251Z,9.711521
2022-07-31T01:17:01.797Z,9.711567
2022-07-31T01:18:01.233Z,9.711689
2022-07-31T01:19:01.220Z,9.711821
2022-07-31T01:20:01.215Z,9.711670
2022-07-31T01:21:01.210Z,9.711719
2022-07-31T01:22:03.938Z,9.711781
2022-07-31T01:23:01.197Z,9.711613
2022-07-31T01:24:01.182Z,9.711815
2022-07-31T01:25:01.173Z,9.711785
2022-07-31T01:26:01.171Z,9.711727
2022-07-31T01:27:01.536Z,9.711762
2022-07-31T01:28:01.158Z,9.711783
2022-07-31T01:29:01.154Z,9.711811
2022-07-31T01:30:01.136Z,9.711718
2022-07-31T01:31:24.230Z,9.711638
2022-07-31T01:32:03.123Z,9.711783
2022-07-31T01:33:01.112Z,9.711705
2022-07-31T01:34:01.111Z,9.711710
2022-07-31T01:35:01.102Z,9.711730
2022-07-31T01:36:01.122Z,9.711758
2022-07-31T01:37:01.600Z,9.711823
2022-07-31T01:38:01.079Z,9.711703
2022-07-31T01:39:01.070Z,9.711865
2022-07-31T01:40:01.073Z,9.711705
2022-07-31T01:41:01.053Z,9.711770
2022-07-31T01:42:01.467Z,9.711784
2022-07-31T01:43:01.052Z,9.711746
2022-07-31T01:44:01.032Z,9.711762
2022-07-31T01:45:01.028Z,9.711862
2022-07-31T01:46:01.017Z,9.711946
2022-07-31T01:47:01.464Z,9.711891
2022-07-31T01:48:00.994Z,9.712040
2022-07-31T01:49:01.000Z,9.712127
2022-07-31T01:50:00.999Z,9.711941
2022-07-31T01:51:00.973Z,9.712065
2022-07-31T01:52:04.370Z,9.712108
2022-07-31T01:53:01.008Z,9.711894
2022-07-31T01:54:00.962Z,9.712164
2022-07-31T01:55:00.939Z,9.712048
2022-07-31T01:56:03.601Z,9.712122
2022-07-31T01:57:00.940Z,9.712133
2022-07-31T01:58:00.911Z,9.712070
2022-07-31T01:59:01.909Z,9.711979
2022-07-31T02:00:00.907Z,9.711971
2022-07-31T02:01:00.950Z,9.712010
2022-07-31T02:02:01.354Z,9.711837
2022-07-31T02:03:07.697Z,9.711870
2022-07-31T02:04:01.867Z,9.711971
2022-07-31T02:05:00.854Z,9.711942
2022-07-31T02:06:00.841Z,9.711974
2022-07-31T02:07:00.840Z,9.711896
2022-07-31T02:08:00.837Z,9.711809
2022-07-31T02:09:00.823Z,9.711711
2022-07-31T02:10:00.815Z,9.711457
2022-07-31T02:11:00.804Z,9.711468
2022-07-31T02:12:00.797Z,9.711621
2022-07-31T02:13:00.803Z,9.711679
2022-07-31T02:14:00.782Z,9.712383
2022-07-31T02:15:00.789Z,9.712643
2022-07-31T02:16:00.762Z,9.712880
2022-07-31T02:17:00.761Z,9.712715
2022-07-31T02:18:00.759Z,9.712552
2022-07-31T02:19:01.144Z,9.712237
2022-07-31T02:20:00.867Z,9.711925
2022-07-31T02:21:00.731Z,9.712014
2022-07-31T02:22:00.946Z,9.712317
2022-07-31T02:23:00.711Z,9.712476
2022-07-31T02:24:00.707Z,9.712528
2022-07-31T02:25:00.694Z,9.712399
2022-07-31T02:26:00.681Z,9.712328
2022-07-31T02:27:00.677Z,9.712220
2022-07-31T02:28:00.667Z,9.712691
2022-07-31T02:29:00.668Z,9.712353
2022-07-31T02:30:00.651Z,9.712238
2022-07-31T02:31:00.645Z,9.711976
2022-07-31T02:32:11.618Z,9.711822
2022-07-31T02:33:01.623Z,9.711899
2022-07-31T02:34:00.615Z,9.711364
2022-07-31T02:35:00.603Z,9.711249
2022-07-31T02:36:00.600Z,9.711328
2022-07-31T02:37:00.603Z,9.712069
2022-07-31T02:38:00.590Z,9.711828
2022-07-31T02:39:00.572Z,9.711870
2022-07-31T02:40:00.565Z,9.711646
2022-07-31T02:41:00.560Z,9.711805
2022-07-31T02:42:00.705Z,9.712033
2022-07-31T02:43:00.545Z,9.712117
2022-07-31T02:44:00.535Z,9.712266
2022-07-31T02:45:00.541Z,9.711715
2022-07-31T02:46:00.548Z,9.711867
2022-07-31T02:47:00.516Z,9.711733
2022-07-31T02:48:00.499Z,9.711714
2022-07-31T02:49:00.544Z,9.711629
2022-07-31T02:50:00.486Z,9.711585
2022-07-31T02:51:00.492Z,9.711486
2022-07-31T02:52:00.571Z,9.711601
2022-07-31T02:53:00.459Z,9.711666
2022-07-31T02:54:00.456Z,9.711584
2022-07-31T02:55:00.447Z,9.711578
2022-07-31T02:56:00.443Z,9.711538
2022-07-31T02:57:00.438Z,9.711521
2022-07-31T02:58:00.420Z,9.711586
2022-07-31T02:59:00.426Z,9.711648
2022-07-31T03:00:00.413Z,9.711666
2022-07-31T03:01:00.516Z,9.711657
2022-07-31T03:02:00.638Z,9.711688
2022-07-31T03:03:00.395Z,9.711748
2022-07-31T03:04:00.380Z,9.711667
2022-07-31T03:05:00.371Z,9.711676
2022-07-31T03:06:00.370Z,9.711740
2022-07-31T03:07:00.371Z,9.711690
2022-07-31T03:08:00.343Z,9.711671
2022-07-31T03:09:00.352Z,9.711639
2022-07-31T03:10:00.331Z,9.711678
2022-07-31T03:11:00.321Z,9.711586
2022-07-31T03:12:05.028Z,9.711524
2022-07-31T03:13:00.305Z,9.711581
2022-07-31T03:14:00.311Z,9.711606
2022-07-31T03:15:00.290Z,9.711617
2022-07-31T03:16:00.282Z,9.711608
2022-07-31T03:17:00.272Z,9.711548
2022-07-31T03:18:00.263Z,9.711557
2022-07-31T03:19:00.270Z,9.711583
2022-07-31T03:20:00.244Z,9.711405
2022-07-31T03:21:00.238Z,9.711540
2022-07-31T03:22:00.680Z,9.711588
2022-07-31T03:23:00.220Z,9.711832
2022-07-31T03:24:00.230Z,9.711985
2022-07-31T03:25:00.208Z,9.712006
2022-07-31T03:26:00.196Z,9.711955
2022-07-31T03:27:00.189Z,9.711927
2022-07-31T03:28:00.188Z,9.711996
2022-07-31T03:29:00.186Z,9.711987
2022-07-31T03:30:00.190Z,9.711847
2022-07-31T03:31:00.173Z,9.711841
2022-07-31T03:32:00.545Z,9.711789
2022-07-31T03:33:00.148Z,9.711942
2022-07-31T03:34:00.150Z,9.711802
2022-07-31T03:35:01.134Z,9.711587
2022-07-31T03:36:00.123Z,9.711526
2022-07-31T03:37:00.119Z,9.711612
2022-07-31T03:38:00.109Z,9.711708
2022-07-31T03:39:00.102Z,9.711669
2022-07-31T03:40:00.124Z,9.711657
2022-07-31T03:41:00.108Z,9.711560
2022-07-31T03:42:00.250Z,9.711576
2022-07-31T03:43:00.076Z,9.711556
2022-07-31T03:44:00.072Z,9.711516
2022-07-31T03:45:00.067Z,9.711676
2022-07-31T03:46:00.040Z,9.711622
2022-07-31T03:47:00.032Z,9.711601
2022-07-31T03:48:00.029Z,9.711608
2022-07-31T03:49:01.056Z,9.711716
2022-07-31T03:50:00.011Z,9.711763
2022-07-31T03:51:00.018Z,9.711669
2022-07-31T03:52:00.162Z,9.711759
2022-07-31T03:52:59.987Z,9.711810
2022-07-31T03:53:59.976Z,9.711696
2022-07-31T03:54:59.970Z,9.711698
2022-07-31T03:55:59.967Z,9.711585
2022-07-31T03:56:59.957Z,9.711681
2022-07-31T03:57:59.947Z,9.711635
2022-07-31T03:58:59.934Z,9.711678
2022-07-31T04:00:00.017Z,9.711697
2022-07-31T04:00:59.946Z,9.711673
2022-07-31T04:01:59.908Z,9.711540
2022-07-31T04:02:59.903Z,9.711611
2022-07-31T04:03:59.896Z,9.711720
2022-07-31T04:04:59.958Z,9.711755
2022-07-31T04:05:59.896Z,9.711624
2022-07-31T04:06:59.882Z,9.711399
2022-07-31T04:07:59.880Z,9.711399
2022-07-31T04:08:59.857Z,9.711603
2022-07-31T04:09:59.857Z,9.711502
2022-07-31T04:10:59.850Z,9.711613
2022-07-31T04:11:59.836Z,9.711595
2022-07-31T04:12:59.835Z,9.711540
2022-07-31T04:13:59.821Z,9.711712
2022-07-31T04:14:59.832Z,9.711882
2022-07-31T04:15:59.821Z,9.711918
2022-07-31T04:16:59.796Z,9.711981
2022-07-31T04:17:59.800Z,9.712015
2022-07-31T04:18:59.909Z,9.711868
2022-07-31T04:19:59.768Z,9.711901
2022-07-31T04:20:59.771Z,9.712001
2022-07-31T04:21:59.755Z,9.712001
2022-07-31T04:22:59.745Z,9.711998
2022-07-31T04:23:59.743Z,9.711897
2022-07-31T04:24:59.730Z,9.711552
2022-07-31T04:26:00.484Z,9.711527
2022-07-31T04:26:59.713Z,9.711521
2022-07-31T04:28:00.513Z,9.711530
2022-07-31T04:28:59.700Z,9.711527
2022-07-31T04:29:59.701Z,9.711513
2022-07-31T04:30:59.698Z,9.711542
2022-07-31T04:31:59.679Z,9.711605
2022-07-31T04:32:59.679Z,9.711589
2022-07-31T04:33:59.661Z,9.711604
2022-07-31T04:34:59.655Z,9.711640
2022-07-31T04:35:59.701Z,9.711586
2022-07-31T04:36:59.638Z,9.711578
2022-07-31T04:37:59.628Z,9.711514
2022-07-31T04:38:59.620Z,9.711580
2022-07-31T04:39:59.617Z,9.711653
2022-07-31T04:40:59.611Z,9.711588
2022-07-31T04:42:00.911Z,9.711644
2022-07-31T04:42:59.587Z,9.711564
2022-07-31T04:43:59.597Z,9.711629
2022-07-31T04:44:59.577Z,9.711655
2022-07-31T04:45:59.605Z,9.711658
2022-07-31T04:46:59.580Z,9.711623
2022-07-31T04:47:59.555Z,9.711608
2022-07-31T04:48:59.626Z,9.711625
2022-07-31T04:49:59.553Z,9.711636
2022-07-31T04:50:59.528Z,9.711620
2022-07-31T04:51:59.529Z,9.711594
2022-07-31T04:52:59.513Z,9.711617
2022-07-31T04:53:59.511Z,9.711568
2022-07-31T04:54:59.494Z,9.711547
2022-07-31T04:55:59.488Z,9.711618
2022-07-31T04:56:59.478Z,9.711667
2022-07-31T04:57:59.475Z,9.711649
2022-07-31T04:58:59.467Z,9.711654
2022-07-31T05:00:01.372Z,9.711643
2022-07-31T05:00:59.444Z,9.711659
2022-07-31T05:01:59.521Z,9.711673
2022-07-31T05:02:59.438Z,9.711669
2022-07-31T05:03:59.425Z,9.711679
2022-07-31T05:04:59.415Z,9.711657
2022-07-31T05:05:59.401Z,9.711642
2022-07-31T05:06:59.402Z,9.711654
2022-07-31T05:07:59.396Z,9.711696
2022-07-31T05:08:59.379Z,9.711624
2022-07-31T05:09:59.362Z,9.711634
2022-07-31T05:11:00.371Z,9.711669
2022-07-31T05:11:59.362Z,9.711645
2022-07-31T05:12:59.356Z,9.711671
2022-07-31T05:13:59.348Z,9.711687
2022-07-31T05:14:59.338Z,9.711713
2022-07-31T05:15:59.326Z,9.711709
2022-07-31T05:16:59.314Z,9.711683
2022-07-31T05:17:59.317Z,9.711681
2022-07-31T05:18:59.307Z,9.711639
2022-07-31T05:19:59.304Z,9.711637
2022-07-31T05:20:59.304Z,9.711611
2022-07-31T05:22:03.934Z,9.711658
2022-07-31T05:23:00.265Z,9.711659
2022-07-31T05:23:59.263Z,9.711659
2022-07-31T05:24:59.259Z,9.711682
2022-07-31T05:25:59.245Z,9.711668
2022-07-31T05:26:59.244Z,9.711726
2022-07-31T05:27:59.274Z,9.711686
2022-07-31T05:28:59.228Z,9.711710
2022-07-31T05:29:59.218Z,9.711629
2022-07-31T05:30:59.216Z,9.711605
2022-07-31T05:32:10.125Z,9.711665
2022-07-31T05:33:00.225Z,9.711615
2022-07-31T05:33:59.201Z,9.711810
2022-07-31T05:34:59.173Z,9.711676
2022-07-31T05:35:59.187Z,9.711697
2022-07-31T05:36:59.166Z,9.711687
2022-07-31T05:37:59.160Z,9.711667
2022-07-31T05:38:59.144Z,9.711733
2022-07-31T05:39:59.959Z,9.711715
2022-07-31T05:40:59.132Z,9.711725
2022-07-31T05:41:59.119Z,9.711582
2022-07-31T05:42:59.118Z,9.711606
2022-07-31T05:43:59.098Z,9.711517
2022-07-31T05:44:59.111Z,9.711648
2022-07-31T05:45:59.094Z,9.711648
2022-07-31T05:52:44.887Z,9.711741
2022-07-31T05:53:45.783Z,9.711774
2022-07-31T05:54:45.867Z,9.711652
2022-07-31T05:55:44.864Z,9.711761
2022-07-31T05:56:44.868Z,9.711468
2022-07-31T05:57:44.842Z,9.711707
2022-07-31T05:58:48.307Z,9.711809
2022-07-31T05:59:44.827Z,9.711750
2022-07-31T06:00:44.848Z,9.711570
2022-07-31T06:01:44.879Z,9.711593
2022-07-31T06:02:44.799Z,9.711604
2022-07-31T06:03:51.623Z,9.711541
2022-07-31T06:04:45.783Z,9.711520
2022-07-31T06:05:44.778Z,9.711565
2022-07-31T06:06:44.773Z,9.711676
2022-07-31T06:07:51.257Z,9.711611
2022-07-31T06:08:45.762Z,9.711635
2022-07-31T06:09:44.746Z,9.711690
2022-07-31T06:10:44.753Z,9.711790
2022-07-31T06:11:44.732Z,9.712018
2022-07-31T06:12:44.725Z,9.712106
2022-07-31T06:13:44.718Z,9.712007
2022-07-31T06:14:44.701Z,9.712132
2022-07-31T06:15:49.216Z,9.711986
2022-07-31T06:16:44.686Z,9.712014
2022-07-31T06:17:45.068Z,9.712113
2022-07-31T06:18:44.667Z,9.712071
2022-07-31T06:19:44.664Z,9.712008
2022-07-31T06:20:44.658Z,9.712165
2022-07-31T06:21:44.646Z,9.712035
2022-07-31T06:22:44.638Z,9.712073
2022-07-31T06:23:44.662Z,9.711947
2022-07-31T06:24:44.627Z,9.711857
2022-07-31T06:25:44.610Z,9.711774
2022-07-31T06:26:44.601Z,9.711707
2022-07-31T06:27:45.002Z,9.711699
2022-07-31T06:28:48.599Z,9.711742
2022-07-31T06:29:44.586Z,9.711904
2022-07-31T06:30:44.569Z,9.711723
2022-07-31T06:31:44.579Z,9.711893
2022-07-31T06:32:44.553Z,9.711988
2022-07-31T06:33:48.103Z,9.711996
2022-07-31T06:34:44.538Z,9.711932
2022-07-31T06:35:44.531Z,9.711718
2022-07-31T06:36:44.520Z,9.711679
2022-07-31T06:37:44.519Z,9.711753
2022-07-31T06:38:44.530Z,9.711678
2022-07-31T06:39:56.065Z,9.711441
2022-07-31T06:40:45.483Z,9.711787
2022-07-31T06:41:44.476Z,9.711978
2022-07-31T06:42:44.467Z,9.712027
2022-07-31T06:43:44.466Z,9.711961
2022-07-31T06:44:46.422Z,9.711873
2022-07-31T06:45:52.004Z,9.711766
2022-07-31T06:46:49.042Z,9.711825
2022-07-31T06:47:44.441Z,9.711918
2022-07-31T06:48:44.424Z,9.711748
2022-07-31T06:49:44.447Z,9.711596
2022-07-31T06:50:44.516Z,9.711609
2022-07-31T06:51:44.399Z,9.711636
2022-07-31T06:52:44.391Z,9.711700
2022-07-31T06:53:44.388Z,9.711844
2022-07-31T06:54:44.372Z,9.711933
2022-07-31T06:55:44.808Z,9.711737
2022-07-31T06:56:44.404Z,9.711398
2022-07-31T06:57:44.346Z,9.711243
2022-07-31T06:58:44.366Z,9.711259
2022-07-31T06:59:44.333Z,9.711208
2022-07-31T07:00:44.337Z,9.711275
2022-07-31T07:01:44.399Z,9.711359
2022-07-31T07:02:44.308Z,9.711135
2022-07-31T07:03:44.307Z,9.711348
2022-07-31T07:05:05.401Z,9.711551
2022-07-31T07:05:45.591Z,9.711915
2022-07-31T07:06:45.277Z,9.712049
2022-07-31T07:07:44.273Z,9.712104
2022-07-31T07:08:44.269Z,9.712072
2022-07-31T07:09:44.254Z,9.712292
2022-07-31T07:10:44.246Z,9.712160
2022-07-31T07:11:44.244Z,9.712221
2022-07-31T07:12:44.232Z,9.711767
2022-07-31T07:13:45.900Z,9.711762
2022-07-31T07:14:44.218Z,9.711833
2022-07-31T07:15:44.211Z,9.711957
2022-07-31T07:16:44.196Z,9.711564
2022-07-31T07:17:44.188Z,9.711270
2022-07-31T07:18:44.187Z,9.711072
2022-07-31T07:19:44.175Z,9.711299
2022-07-31T07:20:44.173Z,9.711309
2022-07-31T07:21:44.163Z,9.711430
2022-07-31T07:22:44.149Z,9.711501
2022-07-31T07:23:44.141Z,9.712256
2022-07-31T07:24:44.138Z,9.712403
2022-07-31T07:25:44.141Z,9.712326
2022-07-31T07:26:44.122Z,9.712188
2022-07-31T07:27:44.112Z,9.711928
2022-07-31T07:28:44.106Z,9.711794
2022-07-31T07:29:44.095Z,9.711802
2022-07-31T07:30:44.091Z,9.711648
2022-07-31T07:31:44.084Z,9.711694
2022-07-31T07:32:44.070Z,9.711667
2022-07-31T07:33:44.061Z,9.711673
2022-07-31T07:34:44.071Z,9.711716
2022-07-31T07:35:44.049Z,9.711738
2022-07-31T07:36:44.040Z,9.711748
2022-07-31T07:37:44.036Z,9.711692
2022-07-31T07:38:44.022Z,9.711656
2022-07-31T07:39:44.019Z,9.711646
2022-07-31T07:40:44.007Z,9.711583
2022-07-31T07:41:44.004Z,9.711574
2022-07-31T07:42:43.992Z,9.711686
2022-07-31T07:43:44.024Z,9.711690
2022-07-31T07:44:43.976Z,9.711692
2022-07-31T07:45:43.966Z,9.711735
2022-07-31T07:46:43.966Z,9.711731
2022-07-31T07:48:02.808Z,9.711696
2022-07-31T07:48:44.967Z,9.711692
2022-07-31T07:49:43.941Z,9.711679
2022-07-31T07:50:43.932Z,9.711682
2022-07-31T07:51:58.851Z,9.711657
2022-07-31T07:52:44.904Z,9.711686
2022-07-31T07:53:44.906Z,9.711667
2022-07-31T07:54:43.898Z,9.711643
2022-07-31T07:55:43.898Z,9.711671
2022-07-31T07:56:43.921Z,9.711750
2022-07-31T07:57:43.871Z,9.711696
2022-07-31T07:58:43.862Z,9.711659
2022-07-31T07:59:43.858Z,9.711666
2022-07-31T08:00:43.913Z,9.711655
2022-07-31T08:01:43.848Z,9.711671
2022-07-31T08:02:43.838Z,9.711648
2022-07-31T08:03:48.786Z,9.711618
2022-07-31T08:04:47.620Z,9.711604
2022-07-31T08:05:44.822Z,9.711671
2022-07-31T08:06:43.801Z,9.711648
2022-07-31T08:07:43.791Z,9.711672
2022-07-31T08:08:43.791Z,9.711692
2022-07-31T08:09:44.745Z,9.711692
2022-07-31T08:10:44.767Z,9.711650
2022-07-31T08:11:43.757Z,9.711600
2022-07-31T08:12:43.753Z,9.711694
2022-07-31T08:13:49.268Z,9.711615
2022-07-31T08:14:45.732Z,9.711586
2022-07-31T08:15:43.723Z,9.711636
2022-07-31T08:16:43.721Z,9.711687
2022-07-31T08:17:43.712Z,9.711640
2022-07-31T08:18:43.702Z,9.711786
2022-07-31T08:19:46.167Z,9.711544
2022-07-31T08:20:44.685Z,9.711622
2022-07-31T08:21:43.677Z,9.711677
2022-07-31T08:22:43.674Z,9.711657
2022-07-31T08:23:43.669Z,9.711620
2022-07-31T08:24:43.656Z,9.711679
2022-07-31T08:25:43.644Z,9.711589
2022-07-31T08:26:43.637Z,9.711553
2022-07-31T08:27:43.635Z,9.711808
2022-07-31T08:28:50.832Z,9.711823
2022-07-31T08:29:44.619Z,9.711777
2022-07-31T08:30:43.615Z,9.711824
2022-07-31T08:31:49.315Z,9.711843
2022-07-31T08:32:44.583Z,9.711940
2022-07-31T08:33:43.583Z,9.711839
2022-07-31T08:34:43.574Z,9.711741
2022-07-31T08:35:44.829Z,9.711799
2022-07-31T08:36:45.258Z,9.711513
2022-07-31T08:37:50.826Z,9.711568
2022-07-31T08:38:44.541Z,9.711580
2022-07-31T08:39:43.535Z,9.711651
2022-07-31T08:40:43.796Z,9.711699
2022-07-31T08:41:43.523Z,9.711603
2022-07-31T08:42:43.520Z,9.711580
2022-07-31T08:43:59.896Z,9.711526
2022-07-31T08:44:45.335Z,9.711539
2022-07-31T08:45:43.491Z,9.711586
2022-07-31T08:46:43.483Z,9.711695
2022-07-31T08:47:43.486Z,9.711733
2022-07-31T08:48:43.488Z,9.711678
2022-07-31T08:49:43.457Z,9.711804
2022-07-31T08:50:43.451Z,9.711796
2022-07-31T08:51:51.449Z,9.711718
2022-07-31T08:52:44.437Z,9.711660
2022-07-31T08:53:43.429Z,9.711950
2022-07-31T08:54:43.420Z,9.711982
2022-07-31T08:55:56.795Z,9.711978
2022-07-31T08:56:44.404Z,9.711811
2022-07-31T08:57:43.386Z,9.711731
2022-07-31T08:58:44.384Z,9.711861
2022-07-31T08:59:43.378Z,9.711866
2022-07-31T09:00:43.427Z,9.711709
2022-07-31T09:01:43.465Z,9.711711
2022-07-31T09:02:43.346Z,9.711681
2022-07-31T09:03:44.351Z,9.711684
2022-07-31T09:04:43.843Z,9.711674
2022-07-31T09:05:43.340Z,9.711683
2022-07-31T09:06:43.348Z,9.711689
2022-07-31T09:07:43.335Z,9.711694
2022-07-31T09:08:43.315Z,9.711711
2022-07-31T09:09:52.155Z,9.711741
2022-07-31T09:10:49.663Z,9.711719
2022-07-31T09:11:46.270Z,9.711697
2022-07-31T09:12:43.277Z,9.711702
2022-07-31T09:13:43.272Z,9.711676
2022-07-31T09:14:44.261Z,9.711685
2022-07-31T09:15:43.265Z,9.711680
2022-07-31T09:16:43.246Z,9.711684
2022-07-31T09:17:53.816Z,9.711631
2022-07-31T09:18:44.227Z,9.711639
2022-07-31T09:19:52.865Z,9.711603
2022-07-31T09:20:44.220Z,9.711629
2022-07-31T09:21:43.206Z,9.711643
2022-07-31T09:22:43.200Z,9.711658
2022-07-31T09:23:43.189Z,9.711593
2022-07-31T09:24:43.184Z,9.711658
2022-07-31T09:25:43.199Z,9.711613
2022-07-31T09:26:43.169Z,9.711734
2022-07-31T09:27:43.167Z,9.711935
2022-07-31T09:28:43.155Z,9.711834
2022-07-31T09:29:43.780Z,9.711802
2022-07-31T09:30:55.616Z,9.711744
2022-07-31T09:31:44.126Z,9.711816
2022-07-31T09:32:43.124Z,9.711921
2022-07-31T09:33:45.811Z,9.711907
2022-07-31T09:34:44.101Z,9.711870
2022-07-31T09:35:43.094Z,9.711718
2022-07-31T09:36:43.098Z,9.711719
2022-07-31T09:37:43.081Z,9.711839
2022-07-31T09:38:43.072Z,9.711973
2022-07-31T09:39:52.125Z,9.711973
2022-07-31T09:40:55.497Z,9.711973
2022-07-31T09:42:01.141Z,9.711948
2022-07-31T09:42:45.795Z,9.711975
2022-07-31T09:43:51.673Z,9.711989
2022-07-31T09:44:44.027Z,9.711989
2022-07-31T09:45:48.481Z,9.711989
2022-07-31T09:46:44.016Z,9.711989
2022-07-31T09:47:43.002Z,9.711902
2022-07-31T09:48:44.133Z,9.711902
2022-07-31T09:49:42.988Z,9.711818
2022-07-31T09:50:42.977Z,9.711854
2022-07-31T09:51:42.989Z,9.711923
2022-07-31T09:52:42.954Z,9.711977
2022-07-31T09:53:43.975Z,9.711987
2022-07-31T09:54:42.935Z,9.712137
2022-07-31T09:55:42.982Z,9.711862
2022-07-31T09:56:42.938Z,9.711698
2022-07-31T09:57:42.924Z,9.711702
2022-07-31T09:58:43.928Z,9.711658
2022-07-31T09:59:42.905Z,9.711636
2022-07-31T10:00:43.002Z,9.711623
2022-07-31T10:01:42.889Z,9.711611
2022-07-31T10:02:42.896Z,9.711620
2022-07-31T10:03:42.877Z,9.711602
2022-07-31T10:04:43.376Z,9.711591
2022-07-31T10:05:42.863Z,9.711513
2022-07-31T10:06:42.850Z,9.711582
2022-07-31T10:07:42.837Z,9.711691
2022-07-31T10:08:42.833Z,9.711625
2022-07-31T10:09:42.870Z,9.711632
2022-07-31T10:10:42.824Z,9.711588
2022-07-31T10:11:42.809Z,9.711739
2022-07-31T10:12:42.813Z,9.711684
2022-07-31T10:13:42.792Z,9.711731
2022-07-31T10:14:42.784Z,9.711580
2022-07-31T10:15:42.798Z,9.711657
2022-07-31T10:16:42.771Z,9.711660
2022-07-31T10:17:42.763Z,9.711688
2022-07-31T10:18:44.620Z,9.711811
2022-07-31T10:19:43.746Z,9.711702
2022-07-31T10:20:42.749Z,9.711764
2022-07-31T10:21:42.729Z,9.711839
2022-07-31T10:22:42.753Z,9.711771
2022-07-31T10:23:42.718Z,9.711659
2022-07-31T10:24:42.708Z,9.711734
2022-07-31T10:25:42.705Z,9.711692
2022-07-31T10:27:00.179Z,9.711830
2022-07-31T10:27:44.725Z,9.711661
2022-07-31T10:28:42.685Z,9.711815
2022-07-31T10:29:42.665Z,9.711648
2022-07-31T10:30:42.656Z,9.711577
2022-07-31T10:31:42.660Z,9.711503
2022-07-31T10:32:42.737Z,9.711562
2022-07-31T10:33:44.428Z,9.711673
2022-07-31T10:34:43.636Z,9.711556
2022-07-31T10:35:42.619Z,9.711656
2022-07-31T10:36:42.639Z,9.711601
2022-07-31T10:37:42.609Z,9.711599
2022-07-31T10:38:42.596Z,9.711610
2022-07-31T10:39:42.595Z,9.711581
2022-07-31T10:40:43.040Z,9.711563
2022-07-31T10:41:42.587Z,9.711550
2022-07-31T10:42:42.596Z,9.711544
2022-07-31T10:43:42.558Z,9.711569
2022-07-31T10:44:42.547Z,9.711544
2022-07-31T10:45:42.557Z,9.711544
2022-07-31T10:46:42.534Z,9.711559
2022-07-31T10:47:48.912Z,9.711530
2022-07-31T10:48:43.517Z,9.711553
2022-07-31T10:49:42.561Z,9.711522
2022-07-31T10:50:42.507Z,9.711529
2022-07-31T10:51:42.504Z,9.711522
2022-07-31T10:52:42.510Z,9.711520
2022-07-31T10:53:51.640Z,9.711497
2022-07-31T10:54:43.461Z,9.711469
2022-07-31T10:55:43.475Z,9.711508
2022-07-31T10:56:42.465Z,9.711433
2022-07-31T10:57:55.319Z,9.711451
2022-07-31T10:58:43.450Z,9.711455
2022-07-31T10:59:44.783Z,9.711467
2022-07-31T11:00:43.445Z,9.711478
2022-07-31T11:01:42.434Z,9.711496
2022-07-31T11:02:46.324Z,9.711534
2022-07-31T11:03:42.418Z,9.711538
2022-07-31T11:04:42.398Z,9.711519
2022-07-31T11:06:02.163Z,9.711532
2022-07-31T11:06:43.426Z,9.711607
2022-07-31T11:07:42.383Z,9.711555
2022-07-31T11:08:42.386Z,9.711443
2022-07-31T11:09:50.698Z,9.711565
2022-07-31T11:10:43.370Z,9.711772
2022-07-31T11:11:42.357Z,9.711808
2022-07-31T11:12:42.349Z,9.711838
2022-07-31T11:13:42.340Z,9.711646
2022-07-31T11:14:42.327Z,9.711596
2022-07-31T11:15:42.320Z,9.711751
2022-07-31T11:16:42.309Z,9.711783
2022-07-31T11:18:22.600Z,9.712202
2022-07-31T11:18:43.297Z,9.712348
2022-07-31T11:19:42.288Z,9.712229
2022-07-31T11:20:42.277Z,9.712013
2022-07-31T11:21:42.283Z,9.711952
2022-07-31T11:22:42.268Z,9.711874
2022-07-31T11:24:02.236Z,9.711768
2022-07-31T11:24:43.266Z,9.711694
2022-07-31T11:25:42.246Z,9.711688
2022-07-31T11:26:42.372Z,9.711645
2022-07-31T11:27:43.225Z,9.711653
2022-07-31T11:28:42.221Z,9.711672
2022-07-31T11:29:59.964Z,9.711650
2022-07-31T11:30:43.201Z,9.711656
2022-07-31T11:31:42.198Z,9.711617
2022-07-31T11:32:42.183Z,9.711620
2022-07-31T11:33:42.777Z,9.711664
2022-07-31T11:34:42.836Z,9.711658
2022-07-31T11:35:42.157Z,9.711632
2022-07-31T11:36:42.854Z,9.711643
2022-07-31T11:37:56.362Z,9.711761
2022-07-31T11:38:43.134Z,9.711612
2022-07-31T11:39:42.143Z,9.711762
2022-07-31T11:40:43.117Z,9.711824
2022-07-31T11:41:44.064Z,9.711741
2022-07-31T11:42:42.103Z,9.711917
2022-07-31T11:43:42.099Z,9.711792
2022-07-31T11:44:42.092Z,9.711704
2022-07-31T11:45:42.078Z,9.711909
2022-07-31T11:46:42.071Z,9.711895
2022-07-31T11:48:12.642Z,9.711838
2022-07-31T11:48:45.589Z,9.711739
2022-07-31T11:49:48.426Z,9.711745
2022-07-31T11:50:43.074Z,9.711684
2022-07-31T11:51:42.037Z,9.711825
2022-07-31T11:52:42.025Z,9.711698
2022-07-31T11:53:42.022Z,9.711821
2022-07-31T11:54:42.019Z,9.711717
2022-07-31T11:55:42.005Z,9.711756